createdAt,value
2023-02-21T00:02:05.253Z,31.47
2023-02-21T00:04:32.873Z,30.30
2023-02-21T00:07:00.395Z,30.17
2023-02-21T00:09:27.974Z,34.07
2023-02-21T00:11:55.601Z,29.40
2023-02-21T00:14:23.185Z,29.83
2023-02-21T00:16:50.745Z,29.90
2023-02-21T00:19:18.339Z,31.43
2023-02-21T00:21:45.910Z,29.90
2023-02-21T00:24:17.774Z,30.50
2023-02-21T00:26:45.368Z,29.93
2023-02-21T00:29:12.838Z,31.47
2023-02-21T00:31:40.357Z,31.20
2023-02-21T00:34:07.851Z,32.27
2023-02-21T00:36:35.432Z,30.77
2023-02-21T00:39:02.919Z,32.97
2023-02-21T00:41:30.472Z,29.93
2023-02-21T00:43:57.966Z,31.23
2023-02-21T00:46:25.590Z,33.23
2023-02-21T00:48:53.151Z,31.33
2023-02-21T00:51:20.662Z,30.57
2023-02-21T00:53:48.238Z,31.10
2023-02-21T00:56:15.801Z,29.77
2023-02-21T00:58:43.354Z,31.40
2023-02-21T01:01:11.068Z,31.67
2023-02-21T01:03:38.588Z,29.73
2023-02-21T01:06:09.552Z,32.90
2023-02-21T01:08:37.221Z,29.87
2023-02-21T01:11:04.726Z,34.33
2023-02-21T01:13:32.328Z,30.57
2023-02-21T01:15:59.889Z,32.47
2023-02-21T01:18:27.546Z,31.60
2023-02-21T01:20:55.075Z,29.47
2023-02-21T01:23:22.663Z,32.10
2023-02-21T01:25:50.209Z,28.00
2023-02-21T01:28:17.777Z,31.57
2023-02-21T01:30:45.262Z,31.00
2023-02-21T01:33:12.973Z,29.50
2023-02-21T01:35:40.514Z,30.70
2023-02-21T01:38:08.148Z,28.40
2023-02-21T01:40:37.907Z,28.20
2023-02-21T01:43:14.338Z,31.83
2023-02-21T01:45:49.100Z,28.80
2023-02-21T01:48:18.215Z,29.73
2023-02-21T01:50:45.710Z,31.33
2023-02-21T01:53:18.476Z,30.00
2023-02-21T01:55:46.093Z,31.03
2023-02-21T01:58:13.656Z,30.27
2023-02-21T02:00:41.629Z,33.73
2023-02-21T02:03:10.666Z,31.53
2023-02-21T02:05:39.413Z,31.60
2023-02-21T02:08:07.231Z,33.00
2023-02-21T02:10:34.832Z,29.97
2023-02-21T02:13:08.522Z,33.77
2023-02-21T02:15:46.511Z,31.00
2023-02-21T02:18:32.791Z,37.07
2023-02-21T02:21:18.867Z,30.50
2023-02-21T02:24:05.166Z,28.50
2023-02-21T02:27:01.161Z,28.03
2023-02-21T02:29:47.721Z,27.93
2023-02-21T02:32:15.274Z,27.33
2023-02-21T02:34:54.578Z,29.00
2023-02-21T02:37:31.222Z,26.60
2023-02-21T02:40:03.744Z,25.57
2023-02-21T02:42:31.272Z,29.80
2023-02-21T02:45:01.649Z,32.07
2023-02-21T02:47:32.138Z,28.13
2023-02-21T02:49:59.888Z,31.40
2023-02-21T02:52:27.414Z,29.87
2023-02-21T02:55:02.188Z,30.20
2023-02-21T02:57:31.622Z,27.30
2023-02-21T02:59:59.229Z,26.47
2023-02-21T03:02:35.738Z,27.67
2023-02-21T03:05:06.362Z,28.10
2023-02-21T03:07:39.712Z,26.97
2023-02-21T03:10:23.718Z,29.40
2023-02-21T03:13:06.016Z,27.70
2023-02-21T03:15:36.658Z,32.70
2023-02-21T03:18:09.963Z,28.67
2023-02-21T03:20:38.148Z,28.80
2023-02-21T03:23:06.292Z,27.40
2023-02-21T03:25:35.035Z,28.60
2023-02-21T03:28:02.769Z,32.83
2023-02-21T03:30:30.724Z,33.70
2023-02-21T03:32:58.739Z,32.43
2023-02-21T03:35:29.606Z,32.37
2023-02-21T03:37:58.219Z,30.83
2023-02-21T03:40:27.404Z,33.57
2023-02-21T03:42:55.888Z,33.97
2023-02-21T03:45:23.780Z,36.83
2023-02-21T03:47:51.337Z,31.33
2023-02-21T03:50:19.245Z,34.90
2023-02-21T03:52:46.908Z,40.13
2023-02-21T03:55:14.394Z,37.70
2023-02-21T03:57:41.969Z,39.37
2023-02-21T04:00:09.921Z,37.60
2023-02-21T04:02:37.506Z,37.50
2023-02-21T04:05:05.097Z,36.63
2023-02-21T04:07:32.742Z,36.67
2023-02-21T04:10:00.322Z,47.10
2023-02-21T04:12:27.884Z,41.00
2023-02-21T04:14:55.405Z,43.10
2023-02-21T04:17:23.174Z,41.93
2023-02-21T04:19:50.681Z,41.80
2023-02-21T04:22:18.405Z,39.40
2023-02-21T04:24:45.956Z,42.50
2023-02-21T04:27:13.511Z,46.77
2023-02-21T04:29:40.968Z,44.23
2023-02-21T04:32:10.258Z,42.97
2023-02-21T04:34:37.829Z,43.47
2023-02-21T04:37:05.428Z,44.47
2023-02-21T04:39:32.933Z,42.17
2023-02-21T04:42:00.509Z,44.37
2023-02-21T04:44:28.005Z,41.97
2023-02-21T04:46:55.714Z,42.93
2023-02-21T04:49:23.234Z,46.57
2023-02-21T04:51:51.049Z,45.67
2023-02-21T04:54:18.537Z,40.93
2023-02-21T04:56:46.177Z,41.03
2023-02-21T04:59:13.757Z,41.40
2023-02-21T05:01:41.369Z,43.23
2023-02-21T05:04:09.143Z,42.13
2023-02-21T05:06:36.792Z,42.03
2023-02-21T05:09:07.182Z,42.40
2023-02-21T05:11:35.261Z,41.70
2023-02-21T05:14:02.749Z,45.67
2023-02-21T05:16:30.328Z,44.20
2023-02-21T05:18:59.012Z,39.87
2023-02-21T05:21:26.776Z,45.17
2023-02-21T05:23:54.339Z,38.30
2023-02-21T05:26:23.153Z,44.50
2023-02-21T05:28:50.896Z,45.03
2023-02-21T05:31:18.976Z,43.83
2023-02-21T05:33:46.695Z,42.33
2023-02-21T05:36:14.303Z,43.83
2023-02-21T05:38:45.258Z,43.33
2023-02-21T05:41:13.123Z,45.33
2023-02-21T05:43:40.761Z,46.57
2023-02-21T05:46:08.401Z,41.97
2023-02-21T05:48:35.900Z,42.07
2023-02-21T05:51:03.429Z,43.17
2023-02-21T05:53:31.087Z,48.27
2023-02-21T05:55:58.655Z,52.03
2023-02-21T05:58:26.193Z,49.43
2023-02-21T06:00:53.787Z,56.00
2023-02-21T06:03:21.259Z,50.63
2023-02-21T06:05:48.851Z,54.53
2023-02-21T06:08:16.407Z,47.80
2023-02-21T06:10:43.980Z,45.87
2023-02-21T06:13:11.539Z,52.47
2023-02-21T06:15:39.256Z,48.53
2023-02-21T06:18:06.807Z,47.30
2023-02-21T06:20:34.346Z,50.63
2023-02-21T06:23:01.864Z,46.43
2023-02-21T06:25:29.387Z,51.23
2023-02-21T06:27:56.854Z,42.43
2023-02-21T06:30:24.483Z,45.27
2023-02-21T06:32:52.059Z,46.87
2023-02-21T06:35:19.636Z,44.57
2023-02-21T06:37:47.202Z,48.00
2023-02-21T06:40:15.036Z,45.27
2023-02-21T06:42:42.555Z,43.20
2023-02-21T06:45:10.132Z,49.07
2023-02-21T06:47:37.630Z,52.30
2023-02-21T06:50:05.392Z,46.63
2023-02-21T06:52:32.980Z,50.97
2023-02-21T06:55:00.592Z,43.43
2023-02-21T06:57:28.140Z,47.37
2023-02-21T06:59:56.971Z,52.33
2023-02-21T07:02:24.500Z,48.47
2023-02-21T07:04:52.057Z,53.70
2023-02-21T07:07:19.608Z,48.60
2023-02-21T07:09:47.123Z,46.53
2023-02-21T07:12:14.659Z,48.80
2023-02-21T07:14:42.239Z,44.20
2023-02-21T07:17:09.790Z,48.63
2023-02-21T07:19:37.281Z,42.47
2023-02-21T07:22:04.964Z,46.90
2023-02-21T07:24:32.460Z,46.73
2023-02-21T07:27:00.388Z,49.30
2023-02-21T07:29:28.032Z,44.27
2023-02-21T07:31:55.756Z,42.97
2023-02-21T07:34:23.313Z,40.77
2023-02-21T07:36:51.101Z,40.27
2023-02-21T07:39:18.586Z,37.73
2023-02-21T07:41:46.111Z,38.33
2023-02-21T07:44:13.630Z,33.63
2023-02-21T07:46:41.254Z,35.53
2023-02-21T07:49:08.882Z,31.10
2023-02-21T07:51:36.490Z,35.70
2023-02-21T07:54:06.544Z,32.67
2023-02-21T07:56:34.118Z,30.53
2023-02-21T07:59:01.600Z,31.87
2023-02-21T08:01:29.169Z,29.73
2023-02-21T08:03:56.704Z,30.50
2023-02-21T08:06:24.364Z,32.30
2023-02-21T08:08:51.885Z,30.33
2023-02-21T08:11:19.471Z,29.40
2023-02-21T08:13:47.034Z,27.90
2023-02-21T08:16:14.807Z,24.90
2023-02-21T08:18:42.371Z,31.63
2023-02-21T08:21:10.642Z,31.60
2023-02-21T08:23:38.190Z,23.50
2023-02-21T08:26:05.979Z,26.70
2023-02-21T08:28:33.491Z,27.93
2023-02-21T08:31:01.021Z,26.10
2023-02-21T08:33:30.126Z,25.33
2023-02-21T08:35:59.022Z,23.07
2023-02-21T08:38:26.567Z,25.10
2023-02-21T08:40:56.537Z,24.83
2023-02-21T08:43:25.570Z,25.73
2023-02-21T08:45:53.099Z,27.00
2023-02-21T08:48:20.837Z,23.67
2023-02-21T08:50:48.329Z,24.90
2023-02-21T08:53:16.023Z,26.57
2023-02-21T08:55:43.665Z,21.77
2023-02-21T08:58:11.419Z,26.47
2023-02-21T09:00:39.339Z,29.13
2023-02-21T09:03:06.921Z,28.50
2023-02-21T09:05:34.454Z,30.30
2023-02-21T09:08:02.258Z,28.67
2023-02-21T09:10:30.889Z,30.37
2023-02-21T09:12:58.517Z,25.07
2023-02-21T09:15:26.157Z,29.33
2023-02-21T09:17:53.863Z,31.73
2023-02-21T09:20:23.295Z,32.00
2023-02-21T09:22:51.167Z,34.73
2023-02-21T09:25:20.121Z,34.43
2023-02-21T09:27:47.796Z,31.87
2023-02-21T09:30:16.969Z,31.03
2023-02-21T09:32:44.818Z,31.90
2023-02-21T09:35:14.094Z,28.83
2023-02-21T09:37:42.478Z,28.33
2023-02-21T09:40:13.078Z,31.13
2023-02-21T09:42:40.797Z,31.77
2023-02-21T09:45:14.762Z,33.60
2023-02-21T09:47:42.347Z,30.97
2023-02-21T09:50:14.603Z,33.20
2023-02-21T09:52:42.680Z,28.80
2023-02-21T09:55:48.549Z,26.37
2023-02-21T09:58:18.628Z,25.63
2023-02-21T10:00:47.009Z,26.23
2023-02-21T10:03:26.609Z,27.53
2023-02-21T10:06:20.166Z,24.50
2023-02-21T10:08:54.417Z,26.80
2023-02-21T10:11:25.184Z,23.77
2023-02-21T10:14:04.996Z,21.73
2023-02-21T10:16:32.657Z,22.37
2023-02-21T10:19:03.033Z,22.67
2023-02-21T10:21:33.096Z,22.07
2023-02-21T10:24:02.894Z,24.70
2023-02-21T10:26:31.812Z,20.70
2023-02-21T10:28:59.760Z,18.93
2023-02-21T10:31:30.460Z,14.83
2023-02-21T10:33:58.122Z,16.63
2023-02-21T10:36:25.634Z,14.37
2023-02-21T10:39:04.006Z,16.13
2023-02-21T10:41:35.045Z,16.17
2023-02-21T10:44:08.415Z,12.73
2023-02-21T10:46:59.336Z,15.37
2023-02-21T10:49:32.117Z,16.20
2023-02-21T10:52:05.754Z,13.60
2023-02-21T10:54:35.236Z,14.20
2023-02-21T10:57:04.193Z,15.20
2023-02-21T10:59:33.858Z,17.00
2023-02-21T11:02:02.847Z,11.60
2023-02-21T11:04:34.670Z,15.93
2023-02-21T11:07:05.400Z,13.73
2023-02-21T11:09:37.758Z,14.13
2023-02-21T11:12:08.127Z,11.50
2023-02-21T11:14:35.863Z,13.07
2023-02-21T11:17:22.190Z,16.23
2023-02-21T11:20:02.137Z,11.13
2023-02-21T11:22:35.713Z,13.87
2023-02-21T11:25:12.591Z,12.53
2023-02-21T11:27:40.267Z,15.00
2023-02-21T11:30:26.046Z,15.03
2023-02-21T11:32:57.086Z,15.73
2023-02-21T11:35:33.284Z,13.17
2023-02-21T11:38:02.343Z,13.73
2023-02-21T11:40:46.090Z,13.87
2023-02-21T11:43:18.641Z,15.87
2023-02-21T11:45:55.293Z,13.80
2023-02-21T11:48:23.432Z,13.97
2023-02-21T11:50:52.589Z,14.03
2023-02-21T11:53:35.503Z,13.67
2023-02-21T11:56:21.862Z,15.70
2023-02-21T11:58:55.112Z,13.53
2023-02-21T12:01:36.567Z,16.83
2023-02-21T12:04:10.253Z,13.13
2023-02-21T12:06:42.644Z,12.67
2023-02-21T12:09:20.315Z,12.10
2023-02-21T12:12:16.974Z,12.47
2023-02-21T12:14:54.266Z,14.00
2023-02-21T12:17:21.857Z,13.67
2023-02-21T12:20:05.104Z,12.33
2023-02-21T12:22:45.070Z,12.27
2023-02-21T12:25:31.666Z,13.73
2023-02-21T12:28:02.479Z,12.23
2023-02-21T12:30:48.792Z,13.37
2023-02-21T12:33:35.866Z,14.13
2023-02-21T12:36:18.480Z,14.00
2023-02-21T12:39:04.726Z,14.43
2023-02-21T12:41:38.383Z,13.83
2023-02-21T12:44:17.904Z,16.17
2023-02-21T12:46:53.061Z,16.67
2023-02-21T12:49:25.185Z,12.70
2023-02-21T12:51:58.598Z,14.67
2023-02-21T12:54:35.076Z,15.53
2023-02-21T12:57:04.602Z,15.80
2023-02-21T12:59:52.420Z,14.33
2023-02-21T13:02:37.850Z,13.33
2023-02-21T13:05:11.555Z,15.13
2023-02-21T13:07:39.088Z,13.97
2023-02-21T13:10:24.327Z,13.70
2023-02-21T13:13:03.238Z,14.17
2023-02-21T13:15:31.672Z,14.90
2023-02-21T13:18:02.557Z,13.33
2023-02-21T13:20:34.996Z,15.33
2023-02-21T13:23:21.366Z,15.07
2023-02-21T13:26:22.414Z,16.57
2023-02-21T13:28:56.922Z,17.33
2023-02-21T13:31:29.024Z,14.90
2023-02-21T13:33:58.142Z,15.03
2023-02-21T13:36:28.550Z,17.87
2023-02-21T13:39:05.096Z,16.43
2023-02-21T13:41:35.837Z,16.50
2023-02-21T13:44:07.004Z,17.13
2023-02-21T13:46:37.663Z,17.57
2023-02-21T13:49:24.088Z,15.03
2023-02-21T13:51:52.174Z,17.07
2023-02-21T13:54:24.419Z,18.30
2023-02-21T13:56:52.472Z,19.23
2023-02-21T13:59:38.206Z,15.70
2023-02-21T14:02:28.283Z,17.47
2023-02-21T14:04:55.882Z,20.77
2023-02-21T14:07:53.886Z,19.33
2023-02-21T14:10:26.037Z,17.07
2023-02-21T14:12:56.005Z,18.73
2023-02-21T14:15:23.773Z,18.17
2023-02-21T14:17:52.113Z,19.40
2023-02-21T14:20:20.803Z,19.47
2023-02-21T14:22:50.595Z,17.67
2023-02-21T14:25:19.797Z,19.93
2023-02-21T14:27:47.339Z,18.93
2023-02-21T14:30:16.436Z,20.27
2023-02-21T14:32:51.041Z,17.53
2023-02-21T14:35:27.215Z,18.47
2023-02-21T14:38:05.534Z,22.20
2023-02-21T14:40:33.130Z,20.33
2023-02-21T14:43:16.392Z,20.20
2023-02-21T14:45:48.030Z,18.00
2023-02-21T14:48:30.998Z,20.40
2023-02-21T14:51:17.488Z,20.87
2023-02-21T14:54:00.675Z,21.93
2023-02-21T14:56:28.194Z,22.83
2023-02-21T14:59:14.202Z,20.57
2023-02-21T15:01:44.837Z,23.77
2023-02-21T15:04:19.967Z,21.00
2023-02-21T15:06:56.290Z,21.60
2023-02-21T15:09:24.013Z,24.50
2023-02-21T15:11:51.620Z,22.53
2023-02-21T15:14:21.742Z,21.93
2023-02-21T15:16:51.582Z,24.53
2023-02-21T15:19:27.149Z,22.50
2023-02-21T15:22:13.380Z,23.33
2023-02-21T15:24:41.294Z,22.17
2023-02-21T15:27:12.641Z,19.80
2023-02-21T15:29:41.066Z,18.43
2023-02-21T15:32:11.851Z,24.57
2023-02-21T15:34:43.836Z,18.47
2023-02-21T15:37:20.129Z,21.43
2023-02-21T15:39:56.322Z,24.17
2023-02-21T15:42:24.362Z,20.53
2023-02-21T15:44:54.658Z,23.77
2023-02-21T15:47:23.271Z,24.33
2023-02-21T15:50:02.909Z,24.57
2023-02-21T15:52:36.438Z,22.60
2023-02-21T15:55:33.509Z,23.27
2023-02-21T15:58:01.117Z,24.70
2023-02-21T16:00:30.074Z,26.07
2023-02-21T16:03:16.321Z,21.37
2023-02-21T16:05:43.929Z,22.27
2023-02-21T16:08:14.941Z,24.23
2023-02-21T16:10:43.404Z,25.47
2023-02-21T16:13:11.495Z,23.67
2023-02-21T16:15:40.357Z,22.90
2023-02-21T16:18:08.965Z,20.00
2023-02-21T16:20:40.598Z,23.83
2023-02-21T16:23:20.555Z,21.60
2023-02-21T16:26:00.573Z,24.53
2023-02-21T16:28:28.849Z,21.37
2023-02-21T16:30:57.453Z,25.53
2023-02-21T16:33:25.592Z,27.57
2023-02-21T16:35:53.426Z,24.33
2023-02-21T16:38:21.935Z,23.47
2023-02-21T16:40:49.871Z,21.97
2023-02-21T16:43:25.022Z,23.43
2023-02-21T16:45:54.871Z,24.50
2023-02-21T16:48:24.171Z,25.13
2023-02-21T16:50:51.952Z,25.83
2023-02-21T16:53:20.544Z,26.97
2023-02-21T16:55:48.989Z,25.23
2023-02-21T16:58:19.385Z,24.17
2023-02-21T17:00:50.052Z,25.70
2023-02-21T17:03:17.641Z,25.97
2023-02-21T17:05:45.197Z,29.37
2023-02-21T17:08:13.191Z,28.07
2023-02-21T17:10:52.094Z,26.13
2023-02-21T17:13:22.404Z,28.87
2023-02-21T17:15:55.936Z,26.20
2023-02-21T17:18:23.821Z,28.07
2023-02-21T17:20:51.402Z,27.30
2023-02-21T17:23:18.927Z,31.03
2023-02-21T17:25:46.461Z,29.23
2023-02-21T17:28:14.140Z,24.83
2023-02-21T17:30:42.006Z,24.53
2023-02-21T17:33:13.391Z,23.90
2023-02-21T17:35:47.082Z,27.03
2023-02-21T17:38:15.784Z,29.53
2023-02-21T17:40:43.310Z,28.13
2023-02-21T17:43:12.040Z,30.37
2023-02-21T17:45:39.612Z,28.83
2023-02-21T17:48:07.237Z,26.17
2023-02-21T17:50:34.809Z,27.33
2023-02-21T17:53:02.385Z,29.20
2023-02-21T17:55:29.903Z,28.97
2023-02-21T17:57:57.532Z,27.17
2023-02-21T18:00:26.780Z,31.10
2023-02-21T18:02:55.483Z,28.50
2023-02-21T18:05:23.556Z,30.63
2023-02-21T18:07:52.181Z,35.80
2023-02-21T18:10:20.519Z,40.27
2023-02-21T18:12:50.953Z,38.70
2023-02-21T18:15:22.808Z,35.37
2023-02-21T18:17:50.737Z,33.10
2023-02-21T18:20:47.903Z,30.80
2023-02-21T18:23:15.649Z,31.37
2023-02-21T18:25:43.185Z,32.03
2023-02-21T18:28:11.012Z,30.00
2023-02-21T18:30:38.651Z,29.47
2023-02-21T18:33:06.339Z,33.30
2023-02-21T18:35:33.874Z,30.47
2023-02-21T18:38:01.544Z,30.47
2023-02-21T18:40:29.210Z,27.63
2023-02-21T18:42:56.699Z,30.30
2023-02-21T18:45:24.304Z,27.90
2023-02-21T18:47:51.924Z,26.37
2023-02-21T18:50:19.832Z,28.70
2023-02-21T18:52:47.461Z,35.87
2023-02-21T18:55:15.001Z,34.43
2023-02-21T18:57:42.497Z,33.47
2023-02-21T19:00:10.474Z,38.30
2023-02-21T19:02:38.016Z,34.00
2023-02-21T19:05:05.697Z,28.97
2023-02-21T19:07:33.274Z,29.00
2023-02-21T19:10:00.780Z,28.53
2023-02-21T19:12:28.347Z,38.83
2023-02-21T19:14:55.880Z,33.27
2023-02-21T19:17:23.449Z,29.50
2023-02-21T19:19:50.964Z,30.93
2023-02-21T19:22:18.558Z,35.50
2023-02-21T19:24:46.075Z,32.47
2023-02-21T19:27:13.867Z,31.30
2023-02-21T19:29:41.939Z,34.03
2023-02-21T19:32:09.861Z,35.83
2023-02-21T19:34:37.706Z,35.83
2023-02-21T19:37:05.404Z,37.07
2023-02-21T19:39:33.328Z,35.67
2023-02-21T19:42:02.134Z,37.23
2023-02-21T19:44:30.313Z,34.23
2023-02-21T19:49:51.463Z,34.43
2023-02-21T19:52:19.144Z,31.93
2023-02-21T19:54:47.346Z,33.80
2023-02-21T19:57:14.996Z,33.67
2023-02-21T19:59:44.845Z,40.60
2023-02-21T20:02:27.426Z,38.70
2023-02-21T20:04:55.205Z,35.40
2023-02-21T20:07:22.717Z,34.60
2023-02-21T20:09:50.293Z,35.80
2023-02-21T20:12:17.859Z,32.83
2023-02-21T20:14:45.528Z,33.27
2023-02-21T20:17:13.199Z,32.97
2023-02-21T20:19:40.792Z,34.03
2023-02-21T20:22:08.349Z,34.27
2023-02-21T20:24:35.979Z,36.17
2023-02-21T20:27:03.641Z,38.87
2023-02-21T20:29:31.230Z,33.23
2023-02-21T20:31:59.120Z,43.87
2023-02-21T20:34:26.795Z,39.20
2023-02-21T20:36:54.656Z,39.20
2023-02-21T20:39:25.735Z,37.43
2023-02-21T20:41:56.071Z,38.87
2023-02-21T20:44:23.644Z,35.67
2023-02-21T20:46:51.267Z,40.33
2023-02-21T20:49:19.236Z,42.37
2023-02-21T20:51:46.870Z,36.37
2023-02-21T20:54:18.517Z,39.93
2023-02-21T20:56:47.168Z,38.57
2023-02-21T20:59:18.946Z,36.30
2023-02-21T21:01:50.215Z,34.70
2023-02-21T21:04:25.594Z,33.53
2023-02-21T21:06:53.917Z,33.23
2023-02-21T21:09:21.457Z,36.43
2023-02-21T21:11:48.965Z,39.67
2023-02-21T21:14:17.590Z,37.33
2023-02-21T21:16:45.335Z,37.93
2023-02-21T21:19:13.162Z,40.17
2023-02-21T21:21:40.800Z,41.03
2023-02-21T21:24:08.498Z,38.83
2023-02-21T21:26:36.061Z,40.97
2023-02-21T21:29:03.704Z,41.60
2023-02-21T21:31:31.267Z,46.43
2023-02-21T21:33:59.042Z,41.33
2023-02-21T21:36:26.639Z,45.30
2023-02-21T21:38:54.214Z,42.87
2023-02-21T21:41:21.716Z,48.37
2023-02-21T21:43:49.280Z,43.20
2023-02-21T21:46:16.866Z,45.33
2023-02-21T21:48:45.189Z,44.00
2023-02-21T21:51:12.738Z,47.90
2023-02-21T21:53:40.325Z,45.27
2023-02-21T21:56:08.548Z,47.03
2023-02-21T21:58:36.242Z,45.13
2023-02-21T22:01:04.536Z,46.50
2023-02-21T22:03:32.400Z,44.53
2023-02-21T22:05:59.896Z,43.13
2023-02-21T22:08:28.168Z,40.97
2023-02-21T22:10:55.732Z,47.03
2023-02-21T22:13:23.539Z,46.20
2023-02-21T22:15:51.089Z,47.27
2023-02-21T22:18:19.622Z,50.83
2023-02-21T22:20:47.763Z,48.00
2023-02-21T22:23:15.361Z,48.23
2023-02-21T22:25:42.944Z,48.77
2023-02-21T22:28:11.741Z,40.37
2023-02-21T22:30:39.849Z,51.23
2023-02-21T22:33:08.636Z,51.00
2023-02-21T22:35:36.239Z,49.37
2023-02-21T22:38:03.791Z,50.37
2023-02-21T22:40:32.510Z,47.20
2023-02-21T22:43:01.497Z,45.37
2023-02-21T22:45:29.910Z,46.60
2023-02-21T22:47:57.418Z,49.07
2023-02-21T22:50:25.633Z,48.50
2023-02-21T22:52:54.699Z,51.03
2023-02-21T22:55:23.094Z,49.40
2023-02-21T22:57:50.680Z,48.67
2023-02-21T23:00:18.745Z,52.57
2023-02-21T23:02:47.254Z,51.50
2023-02-21T23:05:15.928Z,55.77
2023-02-21T23:07:43.474Z,56.00
2023-02-21T23:10:10.983Z,55.97
2023-02-21T23:12:38.538Z,58.67
2023-02-21T23:15:06.215Z,66.97
2023-02-21T23:17:33.800Z,63.97
2023-02-21T23:20:02.195Z,68.37
2023-02-21T23:22:29.781Z,69.30
2023-02-21T23:24:57.358Z,73.17
2023-02-21T23:27:24.951Z,76.53
2023-02-21T23:29:52.462Z,83.47
2023-02-21T23:32:20.045Z,80.67
2023-02-21T23:34:47.599Z,77.37
2023-02-21T23:37:15.118Z,80.47
2023-02-21T23:39:42.881Z,79.27
2023-02-21T23:42:10.476Z,77.83
2023-02-21T23:44:37.964Z,81.33
2023-02-21T23:47:05.554Z,85.23
2023-02-21T23:49:33.044Z,85.43
2023-02-21T23:52:00.661Z,78.43
2023-02-21T23:54:28.152Z,90.63
2023-02-21T23:56:55.678Z,75.27
2023-02-21T23:59:23.222Z,93.57
